Time;durP1;ratioP1;P1;durP2;ratioP2;P2;SDS_P1;SDS_P2;PMS_P1;PMS_P2;Temp;Humidity;BMP_temperature;BMP_pressure;BME280_temperature;BME280_humidity;BME280_pressure;Samples;Min_cycle;Max_cycle;Signal;HPM_P1;HPM_P2
2022/03/03 00:01:24;;;;;;;0.25;0.25;;;;;;;;;;5034778;28;20033;-60
2022/03/03 00:03:49;;;;;;;2.45;2.40;;;;;;;;;;5039771;28;20029;-61
2022/03/03 00:06:14;;;;;;;7.50;1.58;;;;;;;;;;5038020;28;20502;-61
2022/03/03 00:08:40;;;;;;;1.33;1.23;;;;;;;;;;5043560;28;20033;-61
2022/03/03 00:11:05;;;;;;;0.00;0.00;;;;;;;;;;5027719;28;20071;-62
2022/03/03 00:13:30;;;;;;;0.20;0.20;;;;;;;;;;5045396;28;20013;-61
2022/03/03 00:15:55;;;;;;;0.00;0.00;;;;;;;;;;5040837;28;20021;-61
2022/03/03 00:18:21;;;;;;;0.00;0.00;;;;;;;;;;5044658;28;20053;-62
2022/03/03 00:20:46;;;;;;;0.00;0.00;;;;;;;;;;5044714;28;20017;-60
2022/03/03 00:23:11;;;;;;;1.33;1.30;;;;;;;;;;5041308;28;20017;-61
2022/03/03 00:25:36;;;;;;;0.68;0.68;;;;;;;;;;5023309;28;20033;-61
2022/03/03 00:28:03;;;;;;;0.75;0.75;;;;;;;;;;5042096;28;20022;-61
2022/03/03 00:30:28;;;;;;;0.00;0.00;;;;;;;;;;5042198;28;20466;-61
2022/03/03 00:32:53;;;;;;;0.05;0.05;;;;;;;;;;5043250;28;20032;-61
2022/03/03 00:35:18;;;;;;;2.40;2.35;;;;;;;;;;5045753;28;20037;-60
2022/03/03 00:37:43;;;;;;;0.00;0.00;;;;;;;;;;5045378;28;20059;-62
2022/03/03 00:40:09;;;;;;;0.00;0.00;;;;;;;;;;5033368;28;20398;-61
2022/03/03 00:42:34;;;;;;;0.00;0.00;;;;;;;;;;5045764;28;20066;-61
2022/03/03 00:45:00;;;;;;;0.00;0.00;;;;;;;;;;5038588;28;20029;-61
2022/03/03 00:47:25;;;;;;;0.00;0.00;;;;;;;;;;5041935;28;20021;-60
2022/03/03 00:49:50;;;;;;;0.00;0.00;;;;;;;;;;5041471;28;20017;-60
2022/03/03 00:52:15;;;;;;;0.00;0.00;;;;;;;;;;5039181;28;20030;-60
2022/03/03 00:54:41;;;;;;;0.20;0.20;;;;;;;;;;5038332;28;20025;-60
2022/03/03 00:57:06;;;;;;;0.75;0.75;;;;;;;;;;5041005;28;20441;-61
2022/03/03 00:59:31;;;;;;;0.00;0.00;;;;;;;;;;5043051;28;20017;-60
2022/03/03 01:01:56;;;;;;;0.00;0.00;;;;;;;;;;5038886;28;20036;-61
2022/03/03 01:04:22;;;;;;;1.88;1.88;;;;;;;;;;5044522;28;20147;-61
2022/03/03 01:06:48;;;;;;;0.03;0.03;;;;;;;;;;5039398;28;20024;-61
2022/03/03 01:09:13;;;;;;;0.00;0.00;;;;;;;;;;5038083;28;20099;-61
2022/03/03 01:11:38;;;;;;;0.00;0.00;;;;;;;;;;5046420;28;20021;-61
2022/03/03 01:14:03;;;;;;;0.38;0.38;;;;;;;;;;5043001;28;20017;-61
2022/03/03 01:16:29;;;;;;;0.00;0.00;;;;;;;;;;5043491;28;20465;-61
2022/03/03 01:18:54;;;;;;;0.00;0.00;;;;;;;;;;5038641;28;20429;-62
2022/03/03 01:21:19;;;;;;;1.73;1.67;;;;;;;;;;5044619;28;20013;-61
2022/03/03 01:23:44;;;;;;;0.00;0.00;;;;;;;;;;5036328;28;20021;-61
2022/03/03 01:26:09;;;;;;;0.00;0.00;;;;;;;;;;5041542;28;20051;-60
2022/03/03 01:28:35;;;;;;;0.32;0.32;;;;;;;;;;5038888;28;20071;-60
2022/03/03 01:31:00;;;;;;;1.02;1.02;;;;;;;;;;5038541;28;20021;-61
2022/03/03 01:33:25;;;;;;;0.20;0.20;;;;;;;;;;5041554;28;20120;-61
2022/03/03 01:35:50;;;;;;;0.00;0.00;;;;;;;;;;5042815;28;20036;-61
2022/03/03 01:38:16;;;;;;;0.00;0.00;;;;;;;;;;5039487;28;20021;-61
2022/03/03 01:40:41;;;;;;;0.00;0.00;;;;;;;;;;5040776;28;20082;-61
2022/03/03 01:43:06;;;;;;;0.00;0.00;;;;;;;;;;5020525;28;20171;-61
2022/03/03 01:45:32;;;;;;;0.00;0.00;;;;;;;;;;5040652;28;20028;-61
2022/03/03 01:47:57;;;;;;;0.00;0.00;;;;;;;;;;5045617;28;20055;-61
2022/03/03 01:50:22;;;;;;;0.00;0.00;;;;;;;;;;5042148;28;20104;-61
2022/03/03 01:52:48;;;;;;;0.03;0.03;;;;;;;;;;5038138;28;20029;-61
2022/03/03 01:55:13;;;;;;;0.00;0.00;;;;;;;;;;5037093;28;20032;-61
2022/03/03 01:57:39;;;;;;;0.00;0.00;;;;;;;;;;5035314;28;20021;-61
2022/03/03 02:00:06;;;;;;;0.00;0.00;;;;;;;;;;5042782;28;20040;-61
2022/03/03 02:02:31;;;;;;;0.00;0.00;;;;;;;;;;5036648;28;20033;-61
2022/03/03 02:04:56;;;;;;;0.20;0.20;;;;;;;;;;5041475;28;20029;-61
2022/03/03 02:07:21;;;;;;;0.00;0.00;;;;;;;;;;5040038;28;20132;-61
2022/03/03 02:09:47;;;;;;;1.45;1.45;;;;;;;;;;5041385;28;20028;-61
2022/03/03 02:12:12;;;;;;;0.00;0.00;;;;;;;;;;5042242;28;20715;-61
2022/03/03 02:14:41;;;;;;;0.00;0.00;;;;;;;;;;5039066;28;20051;-61
2022/03/03 02:17:06;;;;;;;0.00;0.00;;;;;;;;;;5048380;28;20060;-61
2022/03/03 02:19:31;;;;;;;0.00;0.00;;;;;;;;;;5040172;28;20053;-61
2022/03/03 02:21:57;;;;;;;0.45;0.45;;;;;;;;;;5040211;28;20083;-61
2022/03/03 02:24:22;;;;;;;0.00;0.00;;;;;;;;;;5034750;28;20768;-61
2022/03/03 02:26:47;;;;;;;0.00;0.00;;;;;;;;;;5036051;28;20542;-62
2022/03/03 02:29:13;;;;;;;0.00;0.00;;;;;;;;;;5040029;28;20147;-62
2022/03/03 02:31:39;;;;;;;0.00;0.00;;;;;;;;;;5039469;28;20032;-61
2022/03/03 02:34:04;;;;;;;0.00;0.00;;;;;;;;;;5021096;28;20029;-61
2022/03/03 02:36:29;;;;;;;0.00;0.00;;;;;;;;;;5043489;28;20033;-61
2022/03/03 02:38:56;;;;;;;0.05;0.05;;;;;;;;;;5020978;28;20029;-62
2022/03/03 02:41:21;;;;;;;0.88;0.88;;;;;;;;;;5033183;28;20018;-62
2022/03/03 02:43:47;;;;;;;0.00;0.00;;;;;;;;;;5034976;28;20108;-61
2022/03/03 02:46:12;;;;;;;0.00;0.00;;;;;;;;;;5042017;28;20013;-60
2022/03/03 02:48:37;;;;;;;0.00;0.00;;;;;;;;;;5038736;28;20025;-59
2022/03/03 02:51:03;;;;;;;0.00;0.00;;;;;;;;;;5038847;28;20025;-60
2022/03/03 02:53:28;;;;;;;0.00;0.00;;;;;;;;;;5033530;28;20052;-59
2022/03/03 02:55:54;;;;;;;0.00;0.00;;;;;;;;;;5038369;28;20033;-60
2022/03/03 02:58:19;;;;;;;0.00;0.00;;;;;;;;;;5041260;28;20120;-59
2022/03/03 03:00:46;;;;;;;0.00;0.00;;;;;;;;;;5038130;28;20070;-60
2022/03/03 03:03:12;;;;;;;0.95;0.52;;;;;;;;;;5036956;28;20355;-61
2022/03/03 03:05:37;;;;;;;0.00;0.00;;;;;;;;;;5036964;28;20067;-62
2022/03/03 03:08:03;;;;;;;0.00;0.00;;;;;;;;;;5040268;28;20454;-61
2022/03/03 03:10:29;;;;;;;0.00;0.00;;;;;;;;;;5039993;28;20392;-61
2022/03/03 03:12:54;;;;;;;0.10;0.10;;;;;;;;;;5037803;28;20025;-61
2022/03/03 03:15:19;;;;;;;0.00;0.00;;;;;;;;;;5039740;28;20021;-61
2022/03/03 03:17:44;;;;;;;0.00;0.00;;;;;;;;;;5040236;28;20485;-61
2022/03/03 03:20:10;;;;;;;0.00;0.00;;;;;;;;;;5018973;28;20482;-62
2022/03/03 03:22:36;;;;;;;0.00;0.00;;;;;;;;;;5032891;28;20445;-59
2022/03/03 03:25:01;;;;;;;1.17;1.17;;;;;;;;;;5036747;28;20029;-61
2022/03/03 03:27:26;;;;;;;0.00;0.00;;;;;;;;;;5038704;28;20017;-62
2022/03/03 03:29:52;;;;;;;0.25;0.25;;;;;;;;;;5038969;28;20064;-61
2022/03/03 03:32:17;;;;;;;0.45;0.45;;;;;;;;;;5036317;28;20025;-61
2022/03/03 03:34:42;;;;;;;1.17;1.08;;;;;;;;;;5039762;28;20029;-61
2022/03/03 03:37:07;;;;;;;0.00;0.00;;;;;;;;;;5036936;28;20044;-61
2022/03/03 03:39:33;;;;;;;1.83;1.63;;;;;;;;;;5035156;28;20376;-61
2022/03/03 03:41:58;;;;;;;0.13;0.13;;;;;;;;;;5041021;28;20789;-61
2022/03/03 03:44:23;;;;;;;1.02;1.02;;;;;;;;;;5040376;28;20087;-62
2022/03/03 03:46:48;;;;;;;1.50;1.45;;;;;;;;;;5036616;28;20033;-61
2022/03/03 03:49:14;;;;;;;0.00;0.00;;;;;;;;;;5039982;28;20105;-61
2022/03/03 03:51:39;;;;;;;0.00;0.00;;;;;;;;;;5035337;28;20463;-61
2022/03/03 03:54:04;;;;;;;0.00;0.00;;;;;;;;;;5035478;28;20024;-61
2022/03/03 03:56:29;;;;;;;0.00;0.00;;;;;;;;;;5044023;28;20025;-61
2022/03/03 03:58:54;;;;;;;0.00;0.00;;;;;;;;;;5044447;28;20079;-61
2022/03/03 04:01:20;;;;;;;0.00;0.00;;;;;;;;;;5024031;28;20048;-61
2022/03/03 04:03:45;;;;;;;0.00;0.00;;;;;;;;;;5036263;28;20037;-61
2022/03/03 04:06:10;;;;;;;0.00;0.00;;;;;;;;;;5040700;28;20087;-61
2022/03/03 04:08:36;;;;;;;0.00;0.00;;;;;;;;;;5037574;28;20040;-61
2022/03/03 04:11:02;;;;;;;0.00;0.00;;;;;;;;;;5041857;28;20039;-60
2022/03/03 04:13:27;;;;;;;0.00;0.00;;;;;;;;;;5041092;28;20105;-61
2022/03/03 04:15:52;;;;;;;0.20;0.20;;;;;;;;;;5042131;28;20140;-61
2022/03/03 04:18:17;;;;;;;0.55;0.55;;;;;;;;;;5039752;28;20049;-61
2022/03/03 04:20:43;;;;;;;0.00;0.00;;;;;;;;;;5040229;28;20090;-61
2022/03/03 04:23:08;;;;;;;0.00;0.00;;;;;;;;;;5040597;28;20025;-61
2022/03/03 04:25:33;;;;;;;0.00;0.00;;;;;;;;;;5044218;28;20030;-60
2022/03/03 04:27:59;;;;;;;0.00;0.00;;;;;;;;;;5040614;28;20018;-60
2022/03/03 04:30:24;;;;;;;0.22;0.22;;;;;;;;;;5043214;28;20051;-61
2022/03/03 04:32:49;;;;;;;0.00;0.00;;;;;;;;;;5043733;28;20359;-62
2022/03/03 04:35:14;;;;;;;3.53;0.60;;;;;;;;;;5038901;28;20023;-60
2022/03/03 04:37:40;;;;;;;0.00;0.00;;;;;;;;;;5046795;28;20104;-62
2022/03/03 04:40:06;;;;;;;0.10;0.10;;;;;;;;;;5040458;28;20492;-61
2022/03/03 04:42:31;;;;;;;0.00;0.00;;;;;;;;;;5036723;28;20030;-62
2022/03/03 04:44:57;;;;;;;0.10;0.10;;;;;;;;;;5039172;28;20029;-61
2022/03/03 04:47:22;;;;;;;7.57;1.85;;;;;;;;;;5036250;28;20370;-61
2022/03/03 04:49:47;;;;;;;0.70;0.40;;;;;;;;;;5034816;28;20053;-61
2022/03/03 04:52:12;;;;;;;6.30;3.15;;;;;;;;;;5037273;28;20029;-61
2022/03/03 04:54:37;;;;;;;0.32;0.32;;;;;;;;;;5043244;28;20033;-61
2022/03/03 04:57:03;;;;;;;0.00;0.00;;;;;;;;;;5039139;28;20091;-61
2022/03/03 04:59:28;;;;;;;0.00;0.00;;;;;;;;;;5039309;28;20428;-61
2022/03/03 05:01:53;;;;;;;0.00;0.00;;;;;;;;;;5037970;28;20378;-61
2022/03/03 05:04:19;;;;;;;0.22;0.22;;;;;;;;;;5043726;28;20033;-61
2022/03/03 05:06:45;;;;;;;0.00;0.00;;;;;;;;;;5039943;28;20369;-61
2022/03/03 05:09:10;;;;;;;0.00;0.00;;;;;;;;;;5038197;28;20537;-62
2022/03/03 05:11:35;;;;;;;0.00;0.00;;;;;;;;;;5039210;28;20339;-60
2022/03/03 05:14:00;;;;;;;1.00;1.00;;;;;;;;;;5041661;28;20305;-62
2022/03/03 05:16:25;;;;;;;0.20;0.20;;;;;;;;;;5039192;28;20032;-61
2022/03/03 05:18:51;;;;;;;0.25;0.25;;;;;;;;;;5038131;28;20045;-62
2022/03/03 05:21:16;;;;;;;0.75;0.75;;;;;;;;;;5035613;28;20033;-59
2022/03/03 05:23:41;;;;;;;0.10;0.10;;;;;;;;;;5041285;28;20028;-60
2022/03/03 05:26:06;;;;;;;0.43;0.43;;;;;;;;;;5042744;28;20025;-61
2022/03/03 05:28:32;;;;;;;1.65;1.65;;;;;;;;;;5036351;28;20021;-60
2022/03/03 05:30:57;;;;;;;0.10;0.10;;;;;;;;;;5033343;28;20125;-61
2022/03/03 05:33:26;;;;;;;1.63;0.40;;;;;;;;;;5038601;28;20021;-60
2022/03/03 05:35:54;;;;;;;0.00;0.00;;;;;;;;;;5033787;28;20056;-61
2022/03/03 05:38:19;;;;;;;0.00;0.00;;;;;;;;;;5041848;28;20482;-62
2022/03/03 05:40:45;;;;;;;0.00;0.00;;;;;;;;;;5038080;28;20049;-61
2022/03/03 05:43:10;;;;;;;4.40;4.18;;;;;;;;;;5036289;28;20060;-59
2022/03/03 05:45:36;;;;;;;2.75;2.65;;;;;;;;;;5035779;28;20025;-62
2022/03/03 05:48:02;;;;;;;0.00;0.00;;;;;;;;;;5037280;28;20029;-61
2022/03/03 05:50:27;;;;;;;23.75;10.25;;;;;;;;;;5041886;28;20021;-63
2022/03/03 05:52:54;;;;;;;0.00;0.00;;;;;;;;;;5042618;28;20040;-62
2022/03/03 05:55:20;;;;;;;0.00;0.00;;;;;;;;;;5039243;28;20120;-62
2022/03/03 05:57:48;;;;;;;0.00;0.00;;;;;;;;;;5032610;28;20101;-62
2022/03/03 06:00:15;;;;;;;0.00;0.00;;;;;;;;;;5039859;28;20596;-63
2022/03/03 06:02:50;;;;;;;3.25;2.28;;;;;;;;;;5039005;28;20360;-62
2022/03/03 06:05:28;;;;;;;0.00;0.00;;;;;;;;;;5035284;28;20039;-62
2022/03/03 06:07:54;;;;;;;0.00;0.00;;;;;;;;;;5032673;28;20025;-60
2022/03/03 06:10:21;;;;;;;62.15;57.88;;;;;;;;;;5038736;28;20104;-62
2022/03/03 06:12:47;;;;;;;0.00;0.00;;;;;;;;;;5033622;28;20034;-63
2022/03/03 06:15:13;;;;;;;0.20;0.20;;;;;;;;;;5035173;28;20025;-62
2022/03/03 06:17:40;;;;;;;0.00;0.00;;;;;;;;;;5040817;28;20032;-62
2022/03/03 06:20:05;;;;;;;0.22;0.22;;;;;;;;;;5040333;28;20029;-63
2022/03/03 06:22:31;;;;;;;0.13;0.13;;;;;;;;;;5032889;28;20032;-64
2022/03/03 06:24:56;;;;;;;0.90;0.90;;;;;;;;;;5029355;28;20116;-64
2022/03/03 06:27:22;;;;;;;0.20;0.20;;;;;;;;;;5028953;28;20120;-64
2022/03/03 06:29:47;;;;;;;0.00;0.00;;;;;;;;;;5032383;28;20047;-63
2022/03/03 06:32:13;;;;;;;7.35;2.05;;;;;;;;;;5038543;28;20029;-64
2022/03/03 06:34:39;;;;;;;0.00;0.00;;;;;;;;;;5036623;28;20435;-65
2022/03/03 06:37:04;;;;;;;2.00;1.00;;;;;;;;;;5037470;28;20082;-65
2022/03/03 06:39:30;;;;;;;0.00;0.00;;;;;;;;;;5039753;28;20363;-65
2022/03/03 06:41:55;;;;;;;0.15;0.15;;;;;;;;;;5035306;28;20358;-62
2022/03/03 06:44:20;;;;;;;0.00;0.00;;;;;;;;;;5025991;28;20033;-64
2022/03/03 06:46:46;;;;;;;0.10;0.10;;;;;;;;;;5034256;28;20025;-63
2022/03/03 06:49:14;;;;;;;5.57;5.15;;;;;;;;;;5033298;28;20351;-62
2022/03/03 06:51:41;;;;;;;0.15;0.15;;;;;;;;;;5033721;28;20063;-63
2022/03/03 06:54:07;;;;;;;0.00;0.00;;;;;;;;;;5030981;28;20096;-63
2022/03/03 06:56:34;;;;;;;0.00;0.00;;;;;;;;;;5034823;28;20017;-63
2022/03/03 06:59:00;;;;;;;0.00;0.00;;;;;;;;;;5030943;28;20508;-63
2022/03/03 07:01:27;;;;;;;0.00;0.00;;;;;;;;;;5028565;28;20112;-63
2022/03/03 07:03:52;;;;;;;0.00;0.00;;;;;;;;;;5029363;28;20570;-63
2022/03/03 07:06:18;;;;;;;0.00;0.00;;;;;;;;;;5031554;28;20040;-63
2022/03/03 07:08:43;;;;;;;0.00;0.00;;;;;;;;;;5030089;28;20360;-62
2022/03/03 07:11:10;;;;;;;0.00;0.00;;;;;;;;;;5025810;28;20025;-68
2022/03/03 07:13:37;;;;;;;0.30;0.30;;;;;;;;;;5028840;28;20036;-66
2022/03/03 07:16:17;;;;;;;0.00;0.00;;;;;;;;;;5027620;28;20033;-68
2022/03/03 07:18:43;;;;;;;0.00;0.00;;;;;;;;;;5031382;28;20037;-68
2022/03/03 07:21:32;;;;;;;0.38;0.38;;;;;;;;;;5031727;28;20025;-68
2022/03/03 07:24:17;;;;;;;0.00;0.00;;;;;;;;;;4994073;28;20025;-69
2022/03/03 07:26:46;;;;;;;0.00;0.00;;;;;;;;;;5037312;28;20593;-68
2022/03/03 07:29:13;;;;;;;0.10;0.10;;;;;;;;;;5038196;28;20009;-66
2022/03/03 07:31:47;;;;;;;0.00;0.00;;;;;;;;;;5036817;28;20033;-65
2022/03/03 07:34:13;;;;;;;1.05;0.98;;;;;;;;;;5037828;28;20029;-66
2022/03/03 07:36:40;;;;;;;0.00;0.00;;;;;;;;;;5035881;28;20029;-66
2022/03/03 07:39:07;;;;;;;0.00;0.00;;;;;;;;;;5014917;28;20470;-65
2022/03/03 07:41:32;;;;;;;0.00;0.00;;;;;;;;;;5016273;28;20091;-65
2022/03/03 07:43:58;;;;;;;0.43;0.43;;;;;;;;;;5034742;28;20053;-65
2022/03/03 07:46:24;;;;;;;1.83;0.65;;;;;;;;;;5042039;28;20028;-67
2022/03/03 07:48:53;;;;;;;2.03;1.65;;;;;;;;;;5035427;28;20090;-65
2022/03/03 07:51:22;;;;;;;0.00;0.00;;;;;;;;;;5040635;28;20032;-67
2022/03/03 07:53:47;;;;;;;1.85;1.85;;;;;;;;;;5037234;28;20036;-67
2022/03/03 07:56:16;;;;;;;1.45;1.15;;;;;;;;;;5033360;28;20033;-67
2022/03/03 07:58:44;;;;;;;2.92;2.30;;;;;;;;;;5031530;28;20394;-65
2022/03/03 08:01:10;;;;;;;0.00;0.00;;;;;;;;;;5031638;28;20067;-67
2022/03/03 08:03:37;;;;;;;1.35;1.25;;;;;;;;;;5019750;28;20725;-68
2022/03/03 08:06:02;;;;;;;0.00;0.00;;;;;;;;;;5037165;28;20410;-69
2022/03/03 08:08:29;;;;;;;0.28;0.28;;;;;;;;;;5032794;28;20100;-64
2022/03/03 08:10:58;;;;;;;4.72;1.15;;;;;;;;;;5033899;28;20025;-64
2022/03/03 08:13:26;;;;;;;0.65;0.65;;;;;;;;;;5031524;28;20028;-65
2022/03/03 08:15:51;;;;;;;0.10;0.10;;;;;;;;;;5029169;28;20104;-64
2022/03/03 08:18:16;;;;;;;0.22;0.22;;;;;;;;;;5028524;28;20482;-64
2022/03/03 08:20:41;;;;;;;2.17;2.05;;;;;;;;;;5031186;28;20730;-63
2022/03/03 08:23:07;;;;;;;0.10;0.10;;;;;;;;;;5030674;28;20462;-64
2022/03/03 08:25:32;;;;;;;2.10;1.17;;;;;;;;;;5032002;28;20833;-64
2022/03/03 08:27:58;;;;;;;0.98;0.98;;;;;;;;;;5030231;28;20092;-64
2022/03/03 08:30:24;;;;;;;1.65;1.55;;;;;;;;;;5031316;28;20100;-64
2022/03/03 08:33:02;;;;;;;1.55;1.35;;;;;;;;;;5031016;28;20434;-64
2022/03/03 08:35:30;;;;;;;1.65;1.65;;;;;;;;;;5031693;28;20127;-65
2022/03/03 08:38:07;;;;;;;1.70;1.60;;;;;;;;;;5029525;28;20083;-64
2022/03/03 08:40:34;;;;;;;0.00;0.00;;;;;;;;;;5030309;28;20018;-65
2022/03/03 08:43:00;;;;;;;0.22;0.22;;;;;;;;;;5029762;28;20092;-65
2022/03/03 08:45:29;;;;;;;0.00;0.00;;;;;;;;;;5035653;28;20025;-65
2022/03/03 08:48:06;;;;;;;1.13;1.13;;;;;;;;;;5031559;28;20025;-65
2022/03/03 08:50:33;;;;;;;0.10;0.10;;;;;;;;;;5030620;28;20067;-65
2022/03/03 08:52:59;;;;;;;0.10;0.10;;;;;;;;;;5030028;28;20028;-64
2022/03/03 08:55:25;;;;;;;0.10;0.10;;;;;;;;;;5031716;28;20048;-63
2022/03/03 08:57:50;;;;;;;1.55;1.45;;;;;;;;;;5033989;28;20025;-64
2022/03/03 09:00:16;;;;;;;0.00;0.00;;;;;;;;;;5030923;28;20147;-63
2022/03/03 09:02:41;;;;;;;1.10;1.00;;;;;;;;;;5033133;28;20474;-63
2022/03/03 09:05:07;;;;;;;0.00;0.00;;;;;;;;;;5031402;28;20365;-64
2022/03/03 09:07:33;;;;;;;0.10;0.10;;;;;;;;;;5044194;28;20025;-65
2022/03/03 09:09:58;;;;;;;1.08;1.08;;;;;;;;;;5031252;28;20018;-65
2022/03/03 09:12:23;;;;;;;0.00;0.00;;;;;;;;;;5030121;28;20033;-64
2022/03/03 09:14:48;;;;;;;0.00;0.00;;;;;;;;;;5029194;28;20390;-64
2022/03/03 09:17:14;;;;;;;0.17;0.17;;;;;;;;;;5014956;28;20080;-63
2022/03/03 09:19:39;;;;;;;0.22;0.22;;;;;;;;;;5029626;28;20119;-64
2022/03/03 09:22:04;;;;;;;0.00;0.00;;;;;;;;;;5029221;28;20124;-63
2022/03/03 09:24:30;;;;;;;0.00;0.00;;;;;;;;;;5031084;28;20415;-63
2022/03/03 09:26:56;;;;;;;0.00;0.00;;;;;;;;;;5029220;28;20021;-64
2022/03/03 09:29:21;;;;;;;0.00;0.00;;;;;;;;;;5031038;28;20028;-64
2022/03/03 09:31:47;;;;;;;0.00;0.00;;;;;;;;;;5033718;28;20021;-64
2022/03/03 09:34:12;;;;;;;0.52;0.52;;;;;;;;;;5030306;28;20080;-63
2022/03/03 09:36:38;;;;;;;0.00;0.00;;;;;;;;;;5029623;28;20079;-64
2022/03/03 09:39:03;;;;;;;0.00;0.00;;;;;;;;;;5010848;28;20025;-63
2022/03/03 09:41:29;;;;;;;1.30;1.30;;;;;;;;;;5030547;28;20475;-63
2022/03/03 09:43:56;;;;;;;0.85;0.85;;;;;;;;;;5029297;28;20014;-63
2022/03/03 09:46:21;;;;;;;0.00;0.00;;;;;;;;;;5034270;28;20048;-61
2022/03/03 09:48:46;;;;;;;4.57;4.40;;;;;;;;;;5030837;28;20068;-63
2022/03/03 09:51:11;;;;;;;4.18;1.60;;;;;;;;;;5032836;28;20021;-64
2022/03/03 09:53:39;;;;;;;2.17;2.05;;;;;;;;;;5034626;28;20021;-64
2022/03/03 09:56:04;;;;;;;0.45;0.45;;;;;;;;;;5030002;28;20382;-63
2022/03/03 09:58:29;;;;;;;0.13;0.13;;;;;;;;;;5033774;28;20025;-66
2022/03/03 10:00:56;;;;;;;0.47;0.47;;;;;;;;;;5029688;28;20022;-65
2022/03/03 10:03:21;;;;;;;2.17;2.08;;;;;;;;;;5031659;28;20021;-63
2022/03/03 10:05:48;;;;;;;1.90;1.80;;;;;;;;;;5027703;28;20029;-62
2022/03/03 10:08:17;;;;;;;0.08;0.08;;;;;;;;;;5031010;28;20021;-62
2022/03/03 10:10:44;;;;;;;0.00;0.00;;;;;;;;;;5030474;28;20543;-62
2022/03/03 10:13:10;;;;;;;0.15;0.15;;;;;;;;;;5031198;28;20108;-63
2022/03/03 10:15:36;;;;;;;0.05;0.05;;;;;;;;;;5029654;28;20022;-62
2022/03/03 10:18:06;;;;;;;0.00;0.00;;;;;;;;;;5035629;28;20490;-62
2022/03/03 10:20:31;;;;;;;;;;;;;;;;;;5030004;28;20090;-64
2022/03/03 10:22:59;;;;;;;0.47;0.45;;;;;;;;;;5028988;28;19949;-62
2022/03/03 10:25:32;;;;;;;6.72;6.53;;;;;;;;;;5035754;28;20024;-62
2022/03/03 10:28:05;;;;;;;0.08;0.08;;;;;;;;;;5038425;28;20021;-61
2022/03/03 10:30:45;;;;;;;3.58;3.38;;;;;;;;;;5031455;28;20017;-60
2022/03/03 10:33:14;;;;;;;1.00;1.00;;;;;;;;;;5030335;28;20017;-60
2022/03/03 10:35:40;;;;;;;2.15;2.08;;;;;;;;;;5033517;28;20486;-59
2022/03/03 10:38:08;;;;;;;1.25;0.35;;;;;;;;;;5035088;28;20029;-59
2022/03/03 10:40:37;;;;;;;0.00;0.00;;;;;;;;;;5037669;28;20021;-61
2022/03/03 10:43:04;;;;;;;0.00;0.00;;;;;;;;;;5011674;28;20641;-59
2022/03/03 10:45:29;;;;;;;0.00;0.00;;;;;;;;;;5028831;28;20022;-60
2022/03/03 10:47:58;;;;;;;0.00;0.00;;;;;;;;;;5032660;28;20094;-60
2022/03/03 10:50:23;;;;;;;0.00;0.00;;;;;;;;;;5028802;28;20095;-61
2022/03/03 10:52:48;;;;;;;0.00;0.00;;;;;;;;;;5031161;28;20033;-59
2022/03/03 10:55:16;;;;;;;6.03;2.55;;;;;;;;;;5037155;28;20028;-61
2022/03/03 10:57:42;;;;;;;0.00;0.00;;;;;;;;;;5036998;28;20080;-60
2022/03/03 11:00:09;;;;;;;0.00;0.00;;;;;;;;;;5030148;28;20066;-61
2022/03/03 11:02:34;;;;;;;1.05;1.05;;;;;;;;;;5013972;28;20078;-60
2022/03/03 11:05:00;;;;;;;3.20;2.60;;;;;;;;;;5030393;28;20123;-61
2022/03/03 11:07:25;;;;;;;1.48;1.38;;;;;;;;;;5036585;28;20083;-60
2022/03/03 11:09:50;;;;;;;1.23;1.17;;;;;;;;;;5028784;28;20466;-59
2022/03/03 11:12:17;;;;;;;2.70;1.27;;;;;;;;;;5031630;28;20382;-59
2022/03/03 11:14:43;;;;;;;6.72;6.13;;;;;;;;;;5034173;28;20385;-59
2022/03/03 11:17:09;;;;;;;0.28;0.28;;;;;;;;;;5029402;28;20463;-60
2022/03/03 11:19:35;;;;;;;3.30;2.40;;;;;;;;;;5031793;28;20045;-59
2022/03/03 11:22:00;;;;;;;1.45;1.45;;;;;;;;;;5034429;28;20025;-60
2022/03/03 11:24:25;;;;;;;0.00;0.00;;;;;;;;;;5032104;28;20041;-59
2022/03/03 11:26:51;;;;;;;0.00;0.00;;;;;;;;;;5027279;28;20013;-59
2022/03/03 11:29:17;;;;;;;3.20;1.35;;;;;;;;;;5033979;28;20033;-59
2022/03/03 11:31:43;;;;;;;2.85;2.65;;;;;;;;;;5030152;28;20021;-59
2022/03/03 11:34:21;;;;;;;19.30;18.23;;;;;;;;;;5033245;28;20025;-58
2022/03/03 11:36:46;;;;;;;0.55;0.55;;;;;;;;;;5030789;28;20029;-59
2022/03/03 11:39:31;;;;;;;0.65;0.65;;;;;;;;;;5032248;28;20039;-60
2022/03/03 11:41:56;;;;;;;0.68;0.68;;;;;;;;;;5030794;28;20025;-59
2022/03/03 11:44:34;;;;;;;2.72;2.15;;;;;;;;;;5029449;28;20140;-59
2022/03/03 11:47:15;;;;;;;0.57;0.40;;;;;;;;;;5043065;28;20147;-59
2022/03/03 11:49:56;;;;;;;0.00;0.00;;;;;;;;;;5030643;28;20107;-59
2022/03/03 11:52:21;;;;;;;2.47;2.28;;;;;;;;;;5028120;28;20370;-59
2022/03/03 11:54:47;;;;;;;0.00;0.00;;;;;;;;;;5031623;28;20029;-59
2022/03/03 11:57:12;;;;;;;0.00;0.00;;;;;;;;;;5028203;28;20033;-59
2022/03/03 11:59:40;;;;;;;2.08;1.98;;;;;;;;;;5029383;28;20446;-59
2022/03/03 12:02:05;;;;;;;2.65;2.45;;;;;;;;;;5030901;28;20465;-58
2022/03/03 12:04:31;;;;;;;0.65;0.63;;;;;;;;;;5034141;28;20032;-58
2022/03/03 12:06:56;;;;;;;1.85;1.25;;;;;;;;;;5034074;28;20017;-60
2022/03/03 12:09:26;;;;;;;4.45;4.25;;;;;;;;;;5033376;28;20104;-59
2022/03/03 12:12:10;;;;;;;0.52;0.52;;;;;;;;;;5030325;28;20033;-59
2022/03/03 12:14:37;;;;;;;1.20;1.20;;;;;;;;;;5033448;28;20057;-60
2022/03/03 12:17:21;;;;;;;1.02;1.02;;;;;;;;;;5035353;28;20033;-60
2022/03/03 12:19:46;;;;;;;3.17;3.05;;;;;;;;;;5033362;28;20102;-60
2022/03/03 12:22:38;;;;;;;1.13;1.13;;;;;;;;;;5031338;28;20076;-60
2022/03/03 12:25:03;;;;;;;0.00;0.00;;;;;;;;;;5030275;28;20753;-60
2022/03/03 12:27:29;;;;;;;0.00;0.00;;;;;;;;;;5032449;28;20509;-58
2022/03/03 12:29:57;;;;;;;0.35;0.32;;;;;;;;;;5031892;28;20366;-60
2022/03/03 12:32:33;;;;;;;0.00;0.00;;;;;;;;;;5049284;28;20479;-59
2022/03/03 12:35:03;;;;;;;0.80;0.80;;;;;;;;;;5035641;28;20075;-59
2022/03/03 12:37:29;;;;;;;0.00;0.00;;;;;;;;;;5035569;28;20052;-59
2022/03/03 12:39:56;;;;;;;0.00;0.00;;;;;;;;;;5052883;28;20025;-58
2022/03/03 12:42:22;;;;;;;3.45;3.15;;;;;;;;;;5031583;28;20028;-59
2022/03/03 12:44:51;;;;;;;0.25;0.25;;;;;;;;;;5033319;28;20033;-58
2022/03/03 12:47:18;;;;;;;31.02;12.00;;;;;;;;;;5031221;28;20496;-61
2022/03/03 12:49:47;;;;;;;4.40;2.78;;;;;;;;;;5031890;28;20029;-60
2022/03/03 12:52:12;;;;;;;4.10;2.28;;;;;;;;;;5034936;28;20025;-57
2022/03/03 12:54:38;;;;;;;0.45;0.45;;;;;;;;;;5034158;28;20441;-60
2022/03/03 12:57:04;;;;;;;0.10;0.10;;;;;;;;;;5033885;28;20033;-59
2022/03/03 12:59:32;;;;;;;11.05;9.93;;;;;;;;;;5034880;28;20035;-59
2022/03/03 13:01:58;;;;;;;3.40;3.13;;;;;;;;;;5035571;28;20029;-59
2022/03/03 13:04:23;;;;;;;3.88;3.60;;;;;;;;;;5031340;28;20025;-61
2022/03/03 13:06:49;;;;;;;0.00;0.00;;;;;;;;;;5033875;28;20040;-57
2022/03/03 13:09:14;;;;;;;3.63;3.33;;;;;;;;;;5035396;28;20034;-58
2022/03/03 13:11:39;;;;;;;5.22;4.93;;;;;;;;;;5037406;28;20494;-59
2022/03/03 13:14:06;;;;;;;1.50;1.50;;;;;;;;;;5034087;28;20017;-58
2022/03/03 13:16:32;;;;;;;0.00;0.00;;;;;;;;;;5034916;28;20418;-59
2022/03/03 13:19:00;;;;;;;1.13;1.13;;;;;;;;;;5036142;28;20033;-60
2022/03/03 13:21:27;;;;;;;1.27;1.20;;;;;;;;;;5033106;28;20032;-58
2022/03/03 13:23:57;;;;;;;0.38;0.38;;;;;;;;;;5034578;28;20033;-58
2022/03/03 13:26:23;;;;;;;0.43;0.43;;;;;;;;;;5035296;28;20351;-58
2022/03/03 13:28:52;;;;;;;0.40;0.38;;;;;;;;;;5036599;28;20048;-58
2022/03/03 13:31:18;;;;;;;1.85;1.75;;;;;;;;;;5013873;28;20028;-59
2022/03/03 13:33:43;;;;;;;1.48;1.25;;;;;;;;;;5032061;28;20034;-60
2022/03/03 13:36:15;;;;;;;1.20;0.35;;;;;;;;;;5037801;28;20395;-59
2022/03/03 13:38:41;;;;;;;4.57;3.78;;;;;;;;;;5031010;28;20470;-58
2022/03/03 13:41:39;;;;;;;1.95;1.48;;;;;;;;;;5040146;28;20059;-59
2022/03/03 13:44:17;;;;;;;0.88;0.88;;;;;;;;;;4985518;28;20037;-60
2022/03/03 13:47:02;;;;;;;6.40;2.10;;;;;;;;;;5037474;28;20033;-59
2022/03/03 13:49:33;;;;;;;1.95;1.85;;;;;;;;;;5029581;28;20140;-58
2022/03/03 13:52:04;;;;;;;3.05;2.83;;;;;;;;;;5036204;28;20034;-58
2022/03/03 13:54:59;;;;;;;0.00;0.00;;;;;;;;;;5034870;28;20043;-59
2022/03/03 13:57:41;;;;;;;2.53;2.40;;;;;;;;;;5017124;28;20120;-59
2022/03/03 14:00:12;;;;;;;1.77;1.67;;;;;;;;;;5027613;28;20052;-60
2022/03/03 14:02:37;;;;;;;2.20;2.10;;;;;;;;;;5029960;28;20125;-60
2022/03/03 14:05:04;;;;;;;0.00;0.00;;;;;;;;;;5029388;28;20092;-60
2022/03/03 14:07:30;;;;;;;3.53;3.10;;;;;;;;;;5029668;28;20021;-61
2022/03/03 14:09:59;;;;;;;0.45;0.45;;;;;;;;;;5034189;28;20021;-60
2022/03/03 14:12:25;;;;;;;0.08;0.08;;;;;;;;;;5029415;28;20033;-59
2022/03/03 14:14:50;;;;;;;0.00;0.00;;;;;;;;;;5029567;28;20449;-59
2022/03/03 14:17:15;;;;;;;0.20;0.20;;;;;;;;;;5028786;28;20108;-60
2022/03/03 14:19:41;;;;;;;1.42;0.73;;;;;;;;;;5022202;28;20045;-59
2022/03/03 14:22:10;;;;;;;0.20;0.20;;;;;;;;;;5032621;28;20374;-59
2022/03/03 14:24:38;;;;;;;0.30;0.30;;;;;;;;;;5030643;28;20025;-59
2022/03/03 14:27:03;;;;;;;1.20;1.20;;;;;;;;;;5032054;28;20024;-59
2022/03/03 14:29:28;;;;;;;1.33;0.10;;;;;;;;;;5030077;28;20021;-59
2022/03/03 14:31:54;;;;;;;0.95;0.95;;;;;;;;;;5022524;28;20029;-59
2022/03/03 14:34:20;;;;;;;1.25;1.25;;;;;;;;;;5031930;28;20538;-58
2022/03/03 14:36:46;;;;;;;0.35;0.13;;;;;;;;;;5033055;28;20102;-59
2022/03/03 14:39:11;;;;;;;2.47;0.85;;;;;;;;;;5029041;28;20021;-59
2022/03/03 14:41:36;;;;;;;1.20;1.20;;;;;;;;;;5031097;28;20493;-59